METAR Data
IDs: Format: Raw Decoded Include TAF

Data at: 1754 UTC 21 Nov 2018

METAR for:KAUS (Austin/Bergstrom Int, TX, US)
Text:KAUS 211653Z 00000KT 10SM BKN080 BKN200 12/04 A3037 RMK AO2 SLP288 T01170044
Temperature: 11.7°C ( 53°F)
Dewpoint: 4.4°C ( 40°F) [RH = 61%]
Pressure (altimeter):30.37 inches Hg (1028.5 mb) [Sea level pressure: 1028.8 mb]
Winds:calm
Visibility:10 or more sm (16+ km)
Ceiling:8000 feet AGL
Clouds: broken clouds at 8000 feet AGL, broken clouds at 20000 feet AGL